Weather observations for the past three days for
Seymour Johnson Air Force Base
Imperial (Metric)
Date Time (edt) Wind (mph) Vis. (mi.) Weather Sky Cond. Temperature (ºF) Relative Humidity Wind Chill (°F) Heat Index (°F) Pressure Precipitation (in)
Air Dwpt 6 hour altimeter (in) sea level (mb) 1 hr 3 hr 6 hr
Max. Min.
05 21:55 E 7 10.00 Overcast BKN035 OVC060 75.7 72 88% 76 29.88 1012.1
05 20:55 W 8 10.00 A Few Clouds FEW065 FEW080 FEW090 76.3 71.4 85% 77 29.83 1010.4
05 19:55 S 3 10.00 A Few Clouds FEW070 77.9 70.3 97.3 77.9 78% 80 29.81 1009.7
05 18:55 SW 5 10.00 Partly Cloudy SCT060 SCT075 78.4 72.9 83% 81 29.79 1009.0
05 17:55 NW 3 10.00 Thunderstorm in Vicinity CLR 80.6 70.7 72% 84 29.77 1008.4
05 16:55 N 25 G 36 10.00 Thunderstorm and Breezy FEW055 92.5 71.6 51% 100 29.79 1009.0
05 15:55 W 5 10.00 A Few Clouds FEW055 96.8 71.8 45% 105 29.76 1008.0
05 13:55 NW 3 10.00 Fair CLR 94.8 74.3 95.5 77.2 52% 106 29.82 1010.0
05 12:55 W 6 10.00 Fair CLR 93.4 75.7 57% 106 29.84 1010.7
05 11:55 N 5 10.00 Fair CLR 90.7 76.3 63% 103 29.87 1011.7
05 10:55 W 6 10.00 Fair CLR 88.5 76.5 68% 100 29.87 1011.7
05 09:55 NW 9 10.00 Fair CLR 84.7 76.6 77% 95 29.87 1011.7
05 08:55 W 9 10.00 Fair CLR 81.1 76.5 86% 88 29.88 1012.0
05 07:55 W 6 10.00 Fair CLR 77.4 74.5 77.4 72.9 91% 79 29.87 1011.7
05 06:55 Calm 10.00 Fair CLR 73.8 70.9 91% 29.86 1011.4
05 05:55 Calm 10.00 Fair CLR 73.8 70.5 90% 29.85 1011.0
05 04:55 W 3 10.00 Fair CLR 73 69.6 89% 29.85 1011.0
05 03:55 W 7 10.00 Fair CLR 73.4 70.2 90% 29.87 1011.7
05 02:55 W 7 10.00 Thunderstorm in Vicinity BKN160 73.4 70.9 92% 29.88 1012.0
05 01:55 Calm 10.00 Fair CLR 73.8 70.5 89.4 72.9 90% 29.92 1013.4
05 00:55 Calm 10.00 A Few Clouds FEW160 73 70.5 92% 29.92 1013.4
04 23:55 Calm 10.00 Partly Cloudy SCT020 73.2 70.7 92% 29.94 1014.1
04 22:55 SW 5 7.00 Thunderstorm Light Rain OVC060 73.8 71.2 92% 29.98 1015.4
04 21:55 E 20 G 36 10.00 Overcast BKN045 OVC055 77.9 68.9 74% 80 30 1016.1
04 20:55 W 6 10.00 Partly Cloudy SCT190 87.6 75.2 67% 97 29.92 1013.4
04 19:55 S 5 10.00 Fair CLR 89.6 74.3 98.1 89.6 61% 99 29.89 1012.4
04 18:55 W 9 10.00 Fair CLR 93.2 74.5 55% 104 29.89 1012.4
04 17:55 SW 12 10.00 Fair CLR 97.7 76.5 51% 113 29.9 1012.7
04 16:55 SW 14 G 18 10.00 Fair CLR 97.7 75.7 49% 112 29.88 1012.0
04 15:55 SW 9 10.00 Fair CLR 97 75.2 50% 110 29.91 1013.0
04 14:55 W 10 10.00 Fair CLR 97.2 75.9 51% 111 29.94 1014.1
04 13:55 SW 9 G 18 10.00 Fair CLR 95.7 74.7 96.1 78.6 51% 107 29.96 1014.7
04 12:55 SW 12 10.00 Fair CLR 94.3 74.5 53% 105 29.98 1015.4
04 11:55 W 13 10.00 Fair CLR 91.9 73.9 56% 102 29.99 1015.8
04 10:55 W 10 10.00 Fair CLR 89.8 74.8 62% 100 30 1016.1
04 09:55 W 14 10.00 Fair CLR 86 75.4 71% 95 30 1016.1
04 08:55 W 10 10.00 Fair CLR 81.5 76.1 84% 88 30 1016.1
04 07:55 W 9 10.00 A Few Clouds FEW005 78.6 76.1 79.2 76.5 92% 82 30 1016.1
04 06:55 W 5 10.00 Fair CLR 76.5 74.8 95% 77 29.99 1015.8
04 05:55 W 3 10.00 Fair CLR 77.2 75.2 94% 78 29.99 1015.8
04 04:55 SW 3 10.00 Fair CLR 77.7 75.4 93% 80 29.98 1015.4
04 03:55 SW 3 10.00 Fair CLR 77.7 75.2 92% 80 29.98 1015.4
04 02:55 SW 3 10.00 Fair CLR 78.3 75.4 91% 81 29.99 1015.8
04 01:55 W 6 10.00 Fair CLR 78.8 75.2 88 78.6 89% 82 30.01 1016.4
04 00:55 W 5 10.00 Fair CLR 79.7 75 86% 84 30.01 1016.4
03 23:55 SW 5 10.00 Fair CLR 80.8 74.7 82% 86 30.01 1016.4
03 22:55 SW 6 10.00 Fair CLR 81.7 73.8 77% 87 30.02 1016.8
03 21:55 S 3 10.00 Fair CLR 83.3 73.2 72% 89 30.02 1016.8
03 20:55 S 5 10.00 Fair CLR 85.3 73.4 68% 92 29.99 1015.8
03 19:55 S 5 10.00 Fair CLR 88.2 74.3 99.3 88.2 64% 97 29.97 1015.1
03 18:55 SW 8 10.00 Fair CLR 93.2 73.9 54% 103 29.96 1014.8
03 17:55 SW 7 10.00 Fair CLR 96.1 73.8 49% 107 29.96 1014.8
03 16:55 SW 9 10.00 Fair CLR 98.2 73.2 45% 109 29.96 1014.7
03 15:55 S 6 10.00 Fair CLR 98.1 73.6 45% 109 29.98 1015.4
03 14:55 SW 6 10.00 Fair CLR 97 73.2 46% 107 30 1016.1
03 13:55 SW 7 10.00 A Few Clouds FEW060 97 74.5 97.2 78.8 48% 109 30.01 1016.4
03 12:55 S 5 10.00 A Few Clouds FEW050 94.6 74.7 52% 106 30.03 1017.1
03 11:55 SE 5 10.00 Fair CLR 92.3 75.2 58% 104 30.04 1017.5
03 10:55 W 8 10.00 Fair CLR 90.1 74.3 60% 100 30.04 1017.5
03 09:55 W 8 10.00 Fair CLR 87.6 73.4 63% 96 30.04 1017.5
03 08:55 W 7 10.00 Fair CLR 83.3 73.6 73% 90 30.04 1017.5
03 07:55 W 3 10.00 A Few Clouds FEW250 78.6 73.6 79 76.1 85% 82 30.04 1017.5
03 06:55 Calm 10.00 Fair CLR 76.8 72.7 87% 78 30.03 1017.1
03 05:55 Calm 10.00 Fair CLR 76.6 73 89% 77 30.02 1016.8
03 04:55 Calm 10.00 Fair CLR 77.2 73.9 90% 79 30.01 1016.4
03 03:55 SW 5 10.00 Fair CLR 77.7 75.2 92% 80 30 1016.1
03 02:55 Calm 10.00 Fair CLR 78.1 75.6 92% 81 30 1016.1
03 01:55 Calm 10.00 Fair CLR 78.8 76.3 90.9 76.3 92% 83 30.01 1016.4
03 00:55 SE 3 10.00 Fair CLR 77.4 75.4 94% 79 30.02 1016.8
02 23:55 Calm 10.00 Fair CLR 77.5 75.6 94% 79 30.01 1016.4
Date Time (edt) Wind (mph) Vis. (mi.) Weather Sky Cond. Air Dwpt Max. Min. Relative Humidity Wind Chill (°F) Heat Index (°F) altimeter (in) sea level (mb) 1 hr 3 hr 6 hr
6 hour
Temperature (ºF) Pressure Precipitation (in)